VTSE/CJM METAR and TAF weather

Enter ICAO airport designator
Station Type Date Time Source
VTSE METAR 2021/07/30 06:00 UTC NOAA

VTSE 300600Z 26007KT 220V300 9999 FEW020 30/26 Q1008 NOSIG


Station Type Date Time Source
VTSE Decoded METAR 2021/07/30 06:00 UTC NOAA

Station name not available
Jul 30, 2021 - 02:00 AM EDT / 2021.07.30 0600 UTC
Wind: from the W (260 degrees) at 8 MPH (7 KT) (direction variable):0
Visibility: greater than 7 mile(s):0
Sky conditions: mostly clear
Temperature: 86 F (30 C)
Heat index: 99.3 F (37.4 C):1
Dew Point: 78 F (26 C)
Relative Humidity: 79%
Pressure (altimeter): 29.77 in. Hg (1008 hPa)
ob: VTSE 300600Z 26007KT 220V300 9999 FEW020 30/26 Q1008 NOSIG
cycle: 6

Station Type Date Time Source
VTSE TAF 2021/07/30 06:00 UTC NOAA

TAF VTSE 300500Z 3006/3106 25008KT 9999 SCT020 SCT100
TEMPO 3006/3018 4000 RA
TEMPO 3018/3106 4000 RA

Example: see airport list